Time;durP1;ratioP1;P1;durP2;ratioP2;P2;SDS_P1;SDS_P2;PMS_P1;PMS_P2;Temp;Humidity;BMP_temperature;BMP_pressure;BME280_temperature;BME280_humidity;BME280_pressure;Samples;Min_cycle;Max_cycle;Signal;HPM_P1;HPM_P2
2023/05/30 00:01:56;;;;;;;0.15;0.15;;;11.60;96.80;;;;;;4820834;29;20054;-76
2023/05/30 00:04:23;;;;;;;0.15;0.15;;;11.50;96.90;;;;;;4818221;29;20052;-77
2023/05/30 00:06:49;;;;;;;0.10;0.10;;;11.50;96.90;;;;;;4815335;29;20417;-77
2023/05/30 00:09:14;;;;;;;0.20;0.20;;;11.50;97.00;;;;;;4822976;29;20064;-77
2023/05/30 00:11:40;;;;;;;0.10;0.10;;;11.50;96.90;;;;;;4836685;29;20109;-77
2023/05/30 00:14:05;;;;;;;0.20;0.20;;;11.50;97.00;;;;;;4815905;29;20046;-76
2023/05/30 00:16:31;;;;;;;0.10;0.10;;;11.50;97.00;;;;;;4849035;29;20084;-76
2023/05/30 00:18:57;;;;;;;0.20;0.20;;;11.50;97.10;;;;;;4845919;29;20505;-77
2023/05/30 00:21:23;;;;;;;0.10;0.10;;;11.50;97.10;;;;;;4820569;29;20470;-76
2023/05/30 00:23:49;;;;;;;0.10;0.10;;;11.50;97.20;;;;;;4839721;29;20414;-77
2023/05/30 00:26:15;;;;;;;0.10;0.10;;;11.50;97.20;;;;;;4825595;29;20050;-77
2023/05/30 00:28:42;;;;;;;0.10;0.10;;;11.50;97.30;;;;;;4823608;29;20049;-77
2023/05/30 00:31:08;;;;;;;0.10;0.10;;;11.60;97.30;;;;;;4841974;29;20525;-76
2023/05/30 00:33:34;;;;;;;0.10;0.10;;;11.50;97.30;;;;;;4840967;29;20053;-77
2023/05/30 00:36:00;;;;;;;0.17;0.17;;;11.40;97.30;;;;;;4824484;29;20042;-77
2023/05/30 00:38:27;;;;;;;0.10;0.10;;;11.50;97.30;;;;;;4839138;29;20049;-77
2023/05/30 00:40:53;;;;;;;0.10;0.10;;;11.50;97.30;;;;;;4824724;29;20669;-75
2023/05/30 00:43:18;;;;;;;0.20;0.20;;;11.40;97.30;;;;;;4824381;29;20050;-76
2023/05/30 00:45:45;;;;;;;0.17;0.17;;;11.40;97.20;;;;;;4840600;29;20129;-77
2023/05/30 00:48:12;;;;;;;0.17;0.17;;;11.40;97.20;;;;;;4836620;29;20228;-76
2023/05/30 00:50:39;;;;;;;0.10;0.10;;;11.40;97.20;;;;;;4837958;29;20178;-76
2023/05/30 00:53:05;;;;;;;0.20;0.20;;;11.40;97.20;;;;;;4821919;29;20125;-76
2023/05/30 00:55:32;;;;;;;0.20;0.20;;;11.40;97.20;;;;;;4822356;29;20046;-78
2023/05/30 00:57:57;;;;;;;0.10;0.10;;;11.40;97.20;;;;;;4837283;29;20054;-76
2023/05/30 01:00:25;;;;;;;0.20;0.20;;;11.40;97.30;;;;;;4821924;29;20046;-75
2023/05/30 01:02:51;;;;;;;0.13;0.13;;;11.40;97.20;;;;;;4825576;29;20391;-76
2023/05/30 01:05:17;;;;;;;0.20;0.20;;;11.40;97.30;;;;;;4840112;29;20050;-76
2023/05/30 01:07:44;;;;;;;0.10;0.10;;;11.40;97.30;;;;;;4839225;29;20046;-76
2023/05/30 01:10:15;;;;;;;0.20;0.20;;;11.40;97.40;;;;;;4842336;29;20105;-76
2023/05/30 01:12:40;;;;;;;0.10;0.10;;;11.40;97.50;;;;;;4830262;29;20158;-76
2023/05/30 01:15:36;;;;;;;0.13;0.13;;;11.40;97.50;;;;;;4811724;29;20501;-75
2023/05/30 01:18:04;;;;;;;0.10;0.10;;;11.40;97.60;;;;;;4824625;29;20046;-76
2023/05/30 01:20:46;;;;;;;0.10;0.10;;;11.40;97.60;;;;;;4829265;29;20053;-76
2023/05/30 01:23:39;;;;;;;0.10;0.10;;;11.40;97.60;;;;;;4822080;29;20097;-75
2023/05/30 01:26:33;;;;;;;0.10;0.10;;;11.40;97.70;;;;;;4821968;29;20104;-76
2023/05/30 01:29:02;;;;;;;0.20;0.20;;;11.40;97.70;;;;;;4836940;29;20054;-76
2023/05/30 01:31:31;;;;;;;0.10;0.10;;;11.40;97.70;;;;;;4849955;29;20103;-76
2023/05/30 01:33:58;;;;;;;0.20;0.20;;;11.40;97.70;;;;;;4823580;29;20102;-77
2023/05/30 01:36:25;;;;;;;0.20;0.20;;;11.40;97.70;;;;;;4825461;29;20522;-77
2023/05/30 01:38:51;;;;;;;0.20;0.20;;;11.40;97.70;;;;;;4842512;29;20056;-76
2023/05/30 01:41:31;;;;;;;0.10;0.10;;;11.40;97.80;;;;;;4838103;29;20494;-78
2023/05/30 01:44:17;;;;;;;0.20;0.20;;;11.40;97.80;;;;;;4837860;29;20129;-76
2023/05/30 01:47:02;;;;;;;0.10;0.10;;;11.30;97.80;;;;;;4823124;29;20498;-76
2023/05/30 01:49:54;;;;;;;0.10;0.10;;;11.20;97.90;;;;;;4822954;29;20064;-77
2023/05/30 01:52:24;;;;;;;0.10;0.10;;;11.40;98.00;;;;;;4857787;29;20393;-76
2023/05/30 01:54:54;;;;;;;0.10;0.10;;;11.40;98.00;;;;;;4844690;29;20061;-77
2023/05/30 01:57:22;;;;;;;0.10;0.10;;;11.40;98.00;;;;;;4820270;29;20076;-77
2023/05/30 01:59:49;;;;;;;0.20;0.20;;;11.60;98.10;;;;;;4818168;29;20448;-76
2023/05/30 02:02:15;;;;;;;0.20;0.20;;;10.60;97.90;;;;;;4813211;29;20050;-77
2023/05/30 02:04:41;;;;;;;0.10;0.10;;;11.40;98.10;;;;;;4821382;29;20070;-77
2023/05/30 02:07:07;;;;;;;0.20;0.20;;;11.50;98.20;;;;;;4820916;29;20054;-76
2023/05/30 02:09:32;;;;;;;0.10;0.10;;;11.40;98.20;;;;;;4837316;29;20046;-77
2023/05/30 02:11:58;;;;;;;0.20;0.20;;;11.40;98.20;;;;;;4833267;29;20081;-77
2023/05/30 02:14:24;;;;;;;0.20;0.20;;;11.40;98.30;;;;;;4822045;29;20094;-76
2023/05/30 02:16:50;;;;;;;0.20;0.20;;;11.40;98.30;;;;;;4835730;29;20487;-76
2023/05/30 02:19:15;;;;;;;0.20;0.20;;;11.50;98.40;;;;;;4836108;29;20049;-76
2023/05/30 02:21:41;;;;;;;0.10;0.10;;;11.50;98.40;;;;;;4826951;29;20038;-76
2023/05/30 02:24:07;;;;;;;0.20;0.20;;;11.40;98.40;;;;;;4838097;29;20129;-76
2023/05/30 02:26:35;;;;;;;0.13;0.13;;;11.40;98.50;;;;;;4822313;29;20085;-77
2023/05/30 02:29:01;;;;;;;0.20;0.20;;;11.40;98.50;;;;;;4821725;29;20084;-76
2023/05/30 02:31:26;;;;;;;0.20;0.20;;;11.40;98.60;;;;;;4836644;29;20081;-76
2023/05/30 02:33:52;;;;;;;0.20;0.20;;;11.40;98.60;;;;;;4836882;29;20049;-77
2023/05/30 02:36:18;;;;;;;0.20;0.20;;;11.40;98.60;;;;;;4837023;29;20145;-78
2023/05/30 02:38:43;;;;;;;0.10;0.10;;;11.40;98.70;;;;;;4837917;29;20050;-77
2023/05/30 02:41:09;;;;;;;0.17;0.17;;;11.40;98.70;;;;;;4835086;29;20057;-77
2023/05/30 02:43:35;;;;;;;0.20;0.20;;;11.40;98.80;;;;;;4837780;29;20114;-77
2023/05/30 02:46:04;;;;;;;0.10;0.10;;;11.40;98.80;;;;;;4838058;29;20054;-77
2023/05/30 02:48:29;;;;;;;0.10;0.10;;;11.40;98.80;;;;;;4837039;29;20357;-77
2023/05/30 02:50:55;;;;;;;0.20;0.20;;;11.40;98.90;;;;;;4840066;29;20046;-78
2023/05/30 02:53:21;;;;;;;0.10;0.10;;;11.40;98.90;;;;;;4843445;29;20050;-78
2023/05/30 02:55:47;;;;;;;0.20;0.20;;;11.40;98.90;;;;;;4825814;29;20045;-77
2023/05/30 02:58:13;;;;;;;0.10;0.10;;;11.40;99.00;;;;;;4840954;29;20136;-77
2023/05/30 03:00:39;;;;;;;0.10;0.10;;;11.40;99.00;;;;;;4841577;29;20121;-78
2023/05/30 03:03:07;;;;;;;0.10;0.10;;;11.40;99.10;;;;;;4839319;29;20717;-77
2023/05/30 03:05:34;;;;;;;0.10;0.10;;;11.40;99.10;;;;;;4841837;29;20053;-77
2023/05/30 03:08:01;;;;;;;0.10;0.10;;;11.40;99.10;;;;;;4826906;29;20084;-78
2023/05/30 03:10:26;;;;;;;0.20;0.20;;;11.40;99.10;;;;;;4836957;29;20062;-77
2023/05/30 03:12:52;;;;;;;0.17;0.17;;;11.40;99.20;;;;;;4810798;29;20050;-77
2023/05/30 03:15:18;;;;;;;0.10;0.10;;;11.50;99.20;;;;;;4840739;29;20042;-77
2023/05/30 03:17:44;;;;;;;0.10;0.10;;;11.40;99.20;;;;;;4819929;29;20054;-78
2023/05/30 03:20:10;;;;;;;0.10;0.10;;;11.40;99.20;;;;;;4818911;29;20410;-77
2023/05/30 03:22:37;;;;;;;0.20;0.20;;;11.40;99.20;;;;;;4825867;29;20082;-78
2023/05/30 03:25:02;;;;;;;0.20;0.20;;;11.40;99.30;;;;;;4840890;29;20491;-77
2023/05/30 03:27:28;;;;;;;0.10;0.10;;;11.40;99.30;;;;;;4823746;29;20056;-77
2023/05/30 03:29:56;;;;;;;0.17;0.17;;;11.40;99.30;;;;;;4840631;29;20049;-77
2023/05/30 03:32:22;;;;;;;0.10;0.10;;;11.40;99.40;;;;;;4841111;29;20410;-77
2023/05/30 03:34:47;;;;;;;0.20;0.20;;;11.50;99.50;;;;;;4824370;29;20057;-77
2023/05/30 03:37:13;;;;;;;0.10;0.10;;;11.50;99.50;;;;;;4823888;29;20686;-78
2023/05/30 03:39:39;;;;;;;0.20;0.20;;;11.50;99.50;;;;;;4841539;29;20042;-78
2023/05/30 03:42:05;;;;;;;0.15;0.15;;;11.40;99.50;;;;;;4849693;29;20410;-78
2023/05/30 03:44:30;;;;;;;0.13;0.13;;;11.50;99.60;;;;;;4824004;29;20070;-78
2023/05/30 03:46:56;;;;;;;0.13;0.13;;;11.50;99.60;;;;;;4823537;29;20045;-77
2023/05/30 03:49:22;;;;;;;0.10;0.10;;;11.50;99.70;;;;;;4821742;29;20054;-78
2023/05/30 03:51:47;;;;;;;0.20;0.20;;;11.50;99.70;;;;;;4815542;29;20059;-78
2023/05/30 03:54:13;;;;;;;0.10;0.10;;;11.50;99.80;;;;;;4826294;29;20056;-77
2023/05/30 03:56:39;;;;;;;0.10;0.10;;;11.60;99.80;;;;;;4846949;29;20659;-77
2023/05/30 03:59:04;;;;;;;0.10;0.10;;;11.50;99.90;;;;;;4823798;29;20073;-78
2023/05/30 04:01:30;;;;;;;0.20;0.20;;;11.50;99.90;;;;;;4839943;29;20042;-78
2023/05/30 04:03:57;;;;;;;0.10;0.10;;;11.50;99.90;;;;;;4838207;29;20498;-77
2023/05/30 04:06:24;;;;;;;0.10;0.10;;;11.50;99.90;;;;;;4840664;29;20046;-78
2023/05/30 04:08:50;;;;;;;0.10;0.10;;;11.50;99.90;;;;;;4810049;29;20498;-77
2023/05/30 04:11:16;;;;;;;0.20;0.20;;;11.50;99.90;;;;;;4837581;29;20062;-78
2023/05/30 04:13:42;;;;;;;0.20;0.20;;;11.50;99.90;;;;;;4845886;29;20037;-77
2023/05/30 04:16:07;;;;;;;0.10;0.10;;;11.60;99.90;;;;;;4838797;29;20050;-76
2023/05/30 04:18:33;;;;;;;0.20;0.20;;;11.60;99.90;;;;;;4816950;29;20153;-78
2023/05/30 04:20:58;;;;;;;0.13;0.13;;;11.60;99.90;;;;;;4840372;29;20053;-77
2023/05/30 04:23:25;;;;;;;0.10;0.10;;;11.60;99.90;;;;;;4820618;29;20092;-77
2023/05/30 04:25:50;;;;;;;0.13;0.13;;;11.60;99.90;;;;;;4823805;29;20086;-78
2023/05/30 04:28:19;;;;;;;0.10;0.10;;;11.50;99.90;;;;;;4822312;29;20468;-77
2023/05/30 04:30:48;;;;;;;0.20;0.20;;;11.60;99.90;;;;;;4823269;29;20507;-79
2023/05/30 04:33:18;;;;;;;0.10;0.10;;;11.60;99.90;;;;;;4821886;29;20047;-78
2023/05/30 04:35:44;;;;;;;0.10;0.10;;;11.60;99.90;;;;;;4839402;29;20046;-78
2023/05/30 04:38:10;;;;;;;0.17;0.17;;;11.60;99.90;;;;;;4821639;29;20061;-77
2023/05/30 04:40:37;;;;;;;0.20;0.20;;;11.60;99.90;;;;;;4822657;29;20038;-77
2023/05/30 04:43:03;;;;;;;0.20;0.20;;;11.70;99.90;;;;;;4822075;29;20497;-77
2023/05/30 04:45:31;;;;;;;0.20;0.20;;;11.60;99.90;;;;;;4822160;29;20049;-77
2023/05/30 04:47:56;;;;;;;0.15;0.15;;;11.70;99.90;;;;;;4838046;29;20050;-77
2023/05/30 04:50:24;;;;;;;0.10;0.10;;;11.70;99.90;;;;;;4822849;29;20048;-78
2023/05/30 04:52:50;;;;;;;0.20;0.20;;;11.70;99.90;;;;;;4822635;29;20054;-77
2023/05/30 04:55:17;;;;;;;0.10;0.10;;;11.70;99.90;;;;;;4822022;29;20098;-78
2023/05/30 04:57:42;;;;;;;0.15;0.15;;;11.70;99.90;;;;;;4821591;29;20050;-78
2023/05/30 05:00:15;;;;;;;0.10;0.10;;;11.70;99.90;;;;;;4838114;29;20109;-78
2023/05/30 05:02:42;;;;;;;0.17;0.17;;;11.70;99.90;;;;;;4817917;29;20068;-77
2023/05/30 05:05:08;;;;;;;0.10;0.10;;;11.70;99.90;;;;;;4822616;29;20402;-76
2023/05/30 05:07:34;;;;;;;0.20;0.20;;;11.70;99.90;;;;;;4821959;29;20045;-77
2023/05/30 05:10:00;;;;;;;0.20;0.20;;;11.70;99.90;;;;;;4823157;29;20108;-77
2023/05/30 05:12:26;;;;;;;0.13;0.13;;;11.80;99.90;;;;;;4820315;29;20079;-76
2023/05/30 05:14:54;;;;;;;0.10;0.10;;;11.80;99.90;;;;;;4840687;29;20462;-78
2023/05/30 05:17:20;;;;;;;0.10;0.10;;;11.80;99.90;;;;;;4820974;29;20049;-76
2023/05/30 05:19:46;;;;;;;0.20;0.20;;;11.80;99.90;;;;;;4836567;29;20046;-76
2023/05/30 05:22:12;;;;;;;0.20;0.20;;;11.80;99.90;;;;;;4844988;29;20049;-78
2023/05/30 05:24:37;;;;;;;0.10;0.10;;;11.80;99.90;;;;;;4838696;29;20120;-77
2023/05/30 05:27:03;;;;;;;0.20;0.20;;;11.80;99.90;;;;;;4849095;29;20054;-77
2023/05/30 05:29:29;;;;;;;0.10;0.10;;;11.80;99.90;;;;;;4822057;29;20110;-78
2023/05/30 05:31:55;;;;;;;0.20;0.20;;;11.90;99.90;;;;;;4821966;29;20522;-77
2023/05/30 05:34:21;;;;;;;0.20;0.20;;;11.80;99.90;;;;;;4843451;29;20086;-77
2023/05/30 05:36:47;;;;;;;0.15;0.15;;;11.90;99.90;;;;;;4843546;29;20125;-77
2023/05/30 05:39:13;;;;;;;0.10;0.10;;;11.90;99.90;;;;;;4844320;29;20077;-77
2023/05/30 05:41:39;;;;;;;0.10;0.10;;;11.90;99.90;;;;;;4839296;29;20113;-77
2023/05/30 05:44:04;;;;;;;0.17;0.17;;;11.90;99.90;;;;;;4822782;29;20451;-77
2023/05/30 05:46:30;;;;;;;0.20;0.20;;;11.90;99.90;;;;;;4814420;29;20042;-77
2023/05/30 05:48:56;;;;;;;0.20;0.20;;;11.90;99.90;;;;;;4814104;29;20064;-78
2023/05/30 05:51:22;;;;;;;0.20;0.20;;;11.90;99.90;;;;;;4838442;29;20050;-77
2023/05/30 05:53:47;;;;;;;0.20;0.20;;;11.90;99.90;;;;;;4821568;29;20565;-77
2023/05/30 05:56:13;;;;;;;0.20;0.20;;;11.90;99.90;;;;;;4841432;29;20049;-77
2023/05/30 05:58:39;;;;;;;0.20;0.20;;;11.90;99.90;;;;;;4836760;29;20042;-77
2023/05/30 06:01:05;;;;;;;0.10;0.10;;;12.00;99.90;;;;;;4820250;29;20398;-77
2023/05/30 06:03:30;;;;;;;0.10;0.10;;;12.00;99.90;;;;;;4820805;29;20053;-77
2023/05/30 06:05:57;;;;;;;0.10;0.10;;;12.00;99.90;;;;;;4838915;29;20068;-77
2023/05/30 06:08:23;;;;;;;0.10;0.10;;;12.10;99.90;;;;;;4821863;29;20114;-77
2023/05/30 06:10:48;;;;;;;0.20;0.20;;;12.10;99.90;;;;;;4831726;29;20077;-78
2023/05/30 06:13:15;;;;;;;0.20;0.20;;;12.00;99.90;;;;;;4820452;29;20817;-77
2023/05/30 06:15:41;;;;;;;0.20;0.20;;;12.10;99.90;;;;;;4848276;29;20489;-79
2023/05/30 06:18:07;;;;;;;0.10;0.10;;;12.00;99.90;;;;;;4826818;29;20139;-78
2023/05/30 06:20:32;;;;;;;0.10;0.10;;;12.10;99.90;;;;;;4833915;29;20383;-78
2023/05/30 06:22:58;;;;;;;0.10;0.10;;;12.10;99.90;;;;;;4818807;29;20144;-78
2023/05/30 06:25:26;;;;;;;0.10;0.10;;;12.10;99.90;;;;;;4819784;29;20695;-77
2023/05/30 06:27:52;;;;;;;0.20;0.20;;;12.10;99.90;;;;;;4822386;29;20110;-77
2023/05/30 06:30:18;;;;;;;0.20;0.20;;;12.10;99.90;;;;;;4832829;29;20065;-77
2023/05/30 06:32:43;;;;;;;0.10;0.10;;;12.10;99.90;;;;;;4832118;29;20045;-77
2023/05/30 06:35:09;;;;;;;0.20;0.20;;;12.10;99.90;;;;;;4824506;29;20558;-77
2023/05/30 06:37:35;;;;;;;0.10;0.10;;;12.20;99.90;;;;;;4842072;29;20056;-76
2023/05/30 06:40:00;;;;;;;0.20;0.20;;;12.20;99.90;;;;;;4842560;29;20041;-77
2023/05/30 06:42:26;;;;;;;0.20;0.20;;;12.20;99.90;;;;;;4824656;29;20061;-77
2023/05/30 06:44:52;;;;;;;0.10;0.10;;;12.20;99.90;;;;;;4826640;29;20052;-77
2023/05/30 06:47:18;;;;;;;0.10;0.10;;;12.20;99.90;;;;;;4823396;29;20050;-77
2023/05/30 06:49:43;;;;;;;0.20;0.20;;;12.30;99.90;;;;;;4824966;29;20172;-77
2023/05/30 06:52:09;;;;;;;0.15;0.15;;;12.20;99.90;;;;;;4822467;29;20042;-77
2023/05/30 06:54:35;;;;;;;0.20;0.20;;;12.20;99.90;;;;;;4823447;29;20133;-76
2023/05/30 06:57:03;;;;;;;0.10;0.10;;;12.30;99.90;;;;;;4825364;29;20053;-78
2023/05/30 06:59:30;;;;;;;0.17;0.17;;;12.20;99.90;;;;;;4839935;29;20034;-77
2023/05/30 07:01:55;;;;;;;0.10;0.10;;;12.20;99.90;;;;;;4839450;29;20074;-77
2023/05/30 07:04:23;;;;;;;0.20;0.20;;;12.30;99.90;;;;;;4819942;29;20106;-76
2023/05/30 07:06:49;;;;;;;0.20;0.20;;;12.30;99.90;;;;;;4835549;29;20058;-77
2023/05/30 07:09:15;;;;;;;0.20;0.20;;;12.30;99.90;;;;;;4840793;29;20065;-76
2023/05/30 07:11:41;;;;;;;0.10;0.10;;;12.30;99.90;;;;;;4827994;29;20060;-76
2023/05/30 07:14:06;;;;;;;0.20;0.20;;;12.40;99.90;;;;;;4819376;29;20054;-77
2023/05/30 07:16:32;;;;;;;0.10;0.10;;;12.40;99.90;;;;;;4824695;29;20068;-77
2023/05/30 07:18:57;;;;;;;0.20;0.20;;;12.40;99.90;;;;;;4817142;29;20050;-77
2023/05/30 07:21:23;;;;;;;0.15;0.15;;;12.40;99.90;;;;;;4825854;29;20136;-77
2023/05/30 07:23:49;;;;;;;0.10;0.10;;;12.40;99.90;;;;;;4827731;29;20439;-77
2023/05/30 07:26:15;;;;;;;0.20;0.20;;;12.40;99.90;;;;;;4813468;29;20056;-76
2023/05/30 07:28:40;;;;;;;0.20;0.20;;;12.40;99.90;;;;;;4818015;29;20050;-77
2023/05/30 07:31:06;;;;;;;0.10;0.10;;;12.40;99.90;;;;;;4837665;29;20042;-76
2023/05/30 07:33:31;;;;;;;0.10;0.10;;;12.50;99.90;;;;;;4832430;29;20038;-76
2023/05/30 07:35:58;;;;;;;0.20;0.20;;;12.40;99.90;;;;;;4838403;29;20435;-76
2023/05/30 07:38:23;;;;;;;0.10;0.10;;;12.50;99.90;;;;;;4816622;29;20053;-77
2023/05/30 07:40:49;;;;;;;0.20;0.20;;;12.50;99.90;;;;;;4830426;29;20789;-76
2023/05/30 07:43:15;;;;;;;0.10;0.10;;;12.50;99.90;;;;;;4830301;29;20141;-78
2023/05/30 07:45:40;;;;;;;0.10;0.10;;;12.50;99.90;;;;;;4831954;29;20563;-77
2023/05/30 07:48:06;;;;;;;0.10;0.10;;;12.50;99.90;;;;;;4821160;29;20479;-76
2023/05/30 07:50:32;;;;;;;0.10;0.10;;;12.50;99.90;;;;;;4821965;29;20057;-77
2023/05/30 07:52:57;;;;;;;0.10;0.10;;;12.50;99.90;;;;;;4840624;29;20050;-77
2023/05/30 07:55:23;;;;;;;0.20;0.20;;;12.60;99.90;;;;;;4820979;29;20178;-76
2023/05/30 07:57:48;;;;;;;0.10;0.10;;;12.60;99.90;;;;;;4827058;29;20796;-76
2023/05/30 08:00:15;;;;;;;0.20;0.20;;;12.60;99.90;;;;;;4825219;29;20050;-76
2023/05/30 08:02:40;;;;;;;0.10;0.10;;;12.70;99.90;;;;;;4837384;29;20057;-76
2023/05/30 08:05:06;;;;;;;0.20;0.20;;;12.70;99.90;;;;;;4830849;29;20109;-77
2023/05/30 08:07:32;;;;;;;0.20;0.20;;;12.70;99.90;;;;;;4837575;29;20476;-77
2023/05/30 08:09:58;;;;;;;0.20;0.20;;;12.70;99.90;;;;;;4823248;29;20050;-76
2023/05/30 08:12:28;;;;;;;0.20;0.20;;;12.80;99.90;;;;;;4822422;29;20042;-77
2023/05/30 08:14:57;;;;;;;0.20;0.20;;;12.80;99.90;;;;;;4843058;29;20045;-78
2023/05/30 08:17:24;;;;;;;0.10;0.10;;;12.90;99.90;;;;;;4818052;29;20057;-77
2023/05/30 08:19:52;;;;;;;0.10;0.10;;;12.90;99.90;;;;;;4842282;29;20053;-77
2023/05/30 08:22:21;;;;;;;0.20;0.20;;;12.90;99.90;;;;;;4814282;29;20493;-76
2023/05/30 08:24:53;;;;;;;0.20;0.20;;;13.00;99.90;;;;;;4838156;29;20056;-77
2023/05/30 08:27:19;;;;;;;0.10;0.10;;;13.10;99.90;;;;;;4823146;29;20060;-76
2023/05/30 08:29:45;;;;;;;0.15;0.15;;;13.10;99.90;;;;;;4840111;29;20199;-78
2023/05/30 08:32:11;;;;;;;0.20;0.20;;;13.10;99.90;;;;;;4839868;29;20050;-77
2023/05/30 08:34:36;;;;;;;0.20;0.20;;;13.20;99.90;;;;;;4816693;29;20494;-77
2023/05/30 08:37:02;;;;;;;0.10;0.10;;;13.20;99.90;;;;;;4845477;29;20056;-77
2023/05/30 08:39:28;;;;;;;0.20;0.20;;;13.30;99.90;;;;;;4840717;29;20049;-76
2023/05/30 08:41:53;;;;;;;0.15;0.15;;;13.40;99.90;;;;;;4826068;29;20081;-78
2023/05/30 08:44:19;;;;;;;0.20;0.20;;;13.40;99.90;;;;;;4841071;29;20110;-76
2023/05/30 08:46:45;;;;;;;0.20;0.20;;;13.50;99.90;;;;;;4850945;29;20498;-78
2023/05/30 08:49:20;;;;;;;0.20;0.20;;;13.60;99.90;;;;;;4824553;29;20485;-76
2023/05/30 08:51:49;;;;;;;0.20;0.20;;;13.70;99.90;;;;;;4838428;29;20042;-77
2023/05/30 08:54:17;;;;;;;0.20;0.20;;;13.70;99.90;;;;;;4823802;29;20061;-78
2023/05/30 08:56:50;;;;;;;0.10;0.10;;;13.70;99.90;;;;;;4822597;29;20098;-77
2023/05/30 08:59:19;;;;;;;0.15;0.15;;;13.70;99.90;;;;;;4823323;29;20053;-76
2023/05/30 09:01:46;;;;;;;0.20;0.20;;;13.70;99.90;;;;;;4835115;29;20042;-77
2023/05/30 09:04:14;;;;;;;0.20;0.20;;;13.80;99.90;;;;;;4836139;29;20133;-75
2023/05/30 09:06:40;;;;;;;0.10;0.10;;;13.80;99.90;;;;;;4822979;29;20466;-75
2023/05/30 09:09:09;;;;;;;0.20;0.20;;;13.80;99.90;;;;;;4838753;29;20061;-75
2023/05/30 09:11:35;;;;;;;0.20;0.20;;;13.80;99.90;;;;;;4837442;29;20042;-77
2023/05/30 09:14:01;;;;;;;0.20;0.20;;;13.90;99.90;;;;;;4834299;29;21272;-78
2023/05/30 09:16:27;;;;;;;0.20;0.20;;;13.90;99.90;;;;;;4836395;29;20045;-76
2023/05/30 09:18:52;;;;;;;0.10;0.10;;;13.90;99.90;;;;;;4820631;29;20075;-77
2023/05/30 09:21:20;;;;;;;0.20;0.20;;;13.90;99.90;;;;;;4835821;29;20042;-75
2023/05/30 09:23:46;;;;;;;0.20;0.20;;;13.90;99.90;;;;;;4815529;29;20061;-76
2023/05/30 09:26:14;;;;;;;0.10;0.10;;;13.80;99.90;;;;;;4824940;29;20056;-75
2023/05/30 09:28:43;;;;;;;0.10;0.10;;;13.80;99.90;;;;;;4824635;29;20046;-75
2023/05/30 09:31:10;;;;;;;0.20;0.20;;;13.80;99.90;;;;;;4808844;29;20053;-76
2023/05/30 09:33:44;;;;;;;0.10;0.10;;;13.80;99.90;;;;;;4830035;29;20049;-76
2023/05/30 09:36:21;;;;;;;0.10;0.10;;;13.80;99.90;;;;;;4836480;29;20122;-77
2023/05/30 09:38:57;;;;;;;0.20;0.20;;;13.80;99.90;;;;;;4838113;29;20052;-76
2023/05/30 09:41:28;;;;;;;0.20;0.20;;;13.80;99.90;;;;;;4819658;29;21331;-76
2023/05/30 09:43:55;;;;;;;0.10;0.10;;;13.80;99.90;;;;;;4832150;29;20129;-77
2023/05/30 09:46:29;;;;;;;0.10;0.10;;;13.80;99.90;;;;;;4818284;29;20347;-76
2023/05/30 09:48:55;;;;;;;0.20;0.20;;;13.80;99.90;;;;;;4837411;29;20042;-77
2023/05/30 09:51:22;;;;;;;0.10;0.10;;;13.80;99.90;;;;;;4837841;29;20101;-77
2023/05/30 09:54:03;;;;;;;0.20;0.20;;;13.80;99.90;;;;;;4839699;29;20574;-77
2023/05/30 09:56:30;;;;;;;0.10;0.10;;;13.80;99.90;;;;;;4820258;29;20045;-77
2023/05/30 09:59:02;;;;;;;0.20;0.20;;;13.90;99.90;;;;;;4837150;29;20038;-78
2023/05/30 10:01:48;;;;;;;0.20;0.20;;;13.90;99.90;;;;;;4819917;29;20049;-78
2023/05/30 10:04:19;;;;;;;0.10;0.10;;;14.00;99.90;;;;;;4836435;29;20070;-77
2023/05/30 10:06:51;;;;;;;0.10;0.10;;;14.00;99.90;;;;;;4833555;29;20058;-78
2023/05/30 10:09:19;;;;;;;0.20;0.20;;;14.10;99.90;;;;;;4825132;29;20694;-78
2023/05/30 10:11:45;;;;;;;0.20;0.20;;;14.10;99.90;;;;;;4811201;29;20062;-78
2023/05/30 10:14:11;;;;;;;0.10;0.10;;;14.10;99.90;;;;;;4821558;29;20567;-77
2023/05/30 10:16:53;;;;;;;0.10;0.10;;;14.10;99.90;;;;;;4837855;29;20099;-77
2023/05/30 10:19:29;;;;;;;0.20;0.20;;;14.00;99.90;;;;;;4832757;29;20116;-78
2023/05/30 10:21:55;;;;;;;0.10;0.10;;;14.10;99.90;;;;;;4836023;29;20054;-78
2023/05/30 10:24:22;;;;;;;0.10;0.10;;;14.00;99.90;;;;;;4813586;29;20073;-77
2023/05/30 10:27:03;;;;;;;0.10;0.10;;;14.00;99.90;;;;;;4821676;29;20362;-78
2023/05/30 10:29:41;;;;;;;;;;;14.10;99.90;;;;;;4820358;29;20050;-77
2023/05/30 10:32:08;;;;;;;0.20;0.20;;;14.10;99.90;;;;;;4817735;29;19934;-77
2023/05/30 10:34:42;;;;;;;0.20;0.20;;;14.20;99.90;;;;;;4834199;29;20034;-77
2023/05/30 10:37:09;;;;;;;0.20;0.20;;;14.20;99.90;;;;;;4838828;29;20149;-77
2023/05/30 10:39:56;;;;;;;0.15;0.15;;;14.30;99.90;;;;;;4830784;29;20041;-78
2023/05/30 10:42:30;;;;;;;0.20;0.20;;;14.30;99.90;;;;;;4843090;29;20422;-78
2023/05/30 10:45:19;;;;;;;0.20;0.20;;;14.30;99.90;;;;;;4818670;29;20128;-79
2023/05/30 10:48:23;;;;;;;0.10;0.10;;;14.30;99.90;;;;;;4828049;29;20439;-77
2023/05/30 10:50:53;;;;;;;0.20;0.20;;;14.40;99.90;;;;;;4791050;29;20079;-77
2023/05/30 10:53:20;;;;;;;0.15;0.15;;;14.50;99.90;;;;;;4812610;29;20054;-77
2023/05/30 10:55:47;;;;;;;0.10;0.10;;;14.50;99.90;;;;;;4802083;29;20328;-77
2023/05/30 10:58:37;;;;;;;0.20;0.20;;;14.60;99.90;;;;;;4825892;29;20042;-78
2023/05/30 11:01:26;;;;;;;0.20;0.20;;;14.60;99.90;;;;;;4825790;29;20085;-77
2023/05/30 11:03:59;;;;;;;0.17;0.17;;;14.60;99.90;;;;;;4806686;29;20154;-77
2023/05/30 11:06:34;;;;;;;0.20;0.20;;;14.60;99.90;;;;;;4832220;29;20038;-78
2023/05/30 11:09:04;;;;;;;0.20;0.20;;;14.60;99.90;;;;;;4838072;29;20048;-78
2023/05/30 11:11:43;;;;;;;0.10;0.10;;;14.60;99.90;;;;;;4826600;29;20046;-77
2023/05/30 11:14:11;;;;;;;0.10;0.10;;;14.60;99.90;;;;;;4830267;29;20146;-76
2023/05/30 11:16:54;;;;;;;0.20;0.20;;;14.60;99.90;;;;;;4824775;29;20057;-76
2023/05/30 11:19:42;;;;;;;0.20;0.20;;;14.60;99.90;;;;;;4819704;29;20053;-77
2023/05/30 11:22:10;;;;;;;0.20;0.20;;;14.60;99.90;;;;;;4810726;29;20094;-78
2023/05/30 11:24:36;;;;;;;0.10;0.10;;;14.60;99.90;;;;;;4823725;29;20077;-78
2023/05/30 11:27:13;;;;;;;0.17;0.17;;;14.60;99.90;;;;;;4825487;29;20050;-78
2023/05/30 11:29:58;;;;;;;0.20;0.20;;;14.60;99.90;;;;;;4824881;29;20050;-77
2023/05/30 11:32:28;;;;;;;0.17;0.17;;;14.60;99.90;;;;;;4822923;29;20567;-77
2023/05/30 11:35:03;;;;;;;0.20;0.20;;;14.60;99.90;;;;;;4836255;29;20581;-77
2023/05/30 11:37:35;;;;;;;0.10;0.10;;;14.60;99.90;;;;;;4824100;29;20046;-78
2023/05/30 11:40:01;;;;;;;0.20;0.20;;;14.60;99.90;;;;;;4839905;29;20085;-77
2023/05/30 11:42:27;;;;;;;0.20;0.20;;;14.70;99.90;;;;;;4841564;29;20094;-77
2023/05/30 11:44:53;;;;;;;0.20;0.20;;;14.80;99.90;;;;;;4823062;29;20050;-78
2023/05/30 11:47:19;;;;;;;0.20;0.20;;;14.90;99.90;;;;;;4846096;29;20046;-78
2023/05/30 11:49:47;;;;;;;0.10;0.10;;;14.90;99.90;;;;;;4831260;29;20046;-78
2023/05/30 11:52:14;;;;;;;0.10;0.10;;;15.00;99.90;;;;;;4829602;29;20468;-77
2023/05/30 11:54:40;;;;;;;0.10;0.10;;;15.00;99.90;;;;;;4826139;29;20054;-77
2023/05/30 11:57:13;;;;;;;0.20;0.20;;;15.00;99.90;;;;;;4830454;29;20057;-77
2023/05/30 11:59:41;;;;;;;0.20;0.20;;;14.90;99.90;;;;;;4840517;29;20053;-77
2023/05/30 12:02:07;;;;;;;0.20;0.20;;;14.90;99.90;;;;;;4849627;29;20524;-78
2023/05/30 12:04:37;;;;;;;0.10;0.10;;;14.80;99.90;;;;;;4833156;29;20046;-77
2023/05/30 12:07:05;;;;;;;0.17;0.17;;;14.80;99.90;;;;;;4819875;29;20074;-78
2023/05/30 12:09:39;;;;;;;0.10;0.10;;;14.70;99.90;;;;;;4824264;29;20093;-78
2023/05/30 12:12:06;;;;;;;0.10;0.10;;;14.80;99.90;;;;;;4813892;29;20046;-77
2023/05/30 12:14:44;;;;;;;0.10;0.10;;;14.80;99.90;;;;;;4818971;29;20057;-77
2023/05/30 12:17:12;;;;;;;0.20;0.20;;;14.80;99.90;;;;;;4823711;29;20073;-77
2023/05/30 12:19:40;;;;;;;0.20;0.20;;;14.90;99.90;;;;;;4851264;29;20037;-78
2023/05/30 12:22:06;;;;;;;0.20;0.20;;;15.00;99.90;;;;;;4829270;29;20098;-77
2023/05/30 12:24:36;;;;;;;0.20;0.20;;;15.10;99.90;;;;;;4840492;29;20095;-77
2023/05/30 12:27:04;;;;;;;0.10;0.10;;;15.20;99.90;;;;;;4823212;29;20158;-78
2023/05/30 12:29:34;;;;;;;0.20;0.20;;;15.40;99.90;;;;;;4823684;29;20050;-77
2023/05/30 12:32:04;;;;;;;0.20;0.20;;;15.50;99.90;;;;;;4840781;29;20063;-78
2023/05/30 12:34:56;;;;;;;0.10;0.10;;;15.50;99.90;;;;;;4830432;29;20069;-77
2023/05/30 12:37:22;;;;;;;0.15;0.15;;;15.60;99.90;;;;;;4837845;29;20054;-77
2023/05/30 12:39:57;;;;;;;0.10;0.10;;;15.60;99.90;;;;;;4846546;29;20559;-78
2023/05/30 12:42:28;;;;;;;0.20;0.20;;;15.60;99.90;;;;;;4839910;29;20046;-77
2023/05/30 12:44:55;;;;;;;0.20;0.20;;;15.50;99.90;;;;;;4823823;29;20392;-77
2023/05/30 12:47:22;;;;;;;0.20;0.20;;;15.50;99.90;;;;;;4839059;29;20050;-76
2023/05/30 12:49:48;;;;;;;0.20;0.20;;;15.40;99.90;;;;;;4836435;29;20105;-77
2023/05/30 12:52:15;;;;;;;0.20;0.20;;;15.40;99.90;;;;;;4843004;29;20479;-77
2023/05/30 12:54:41;;;;;;;0.20;0.20;;;15.30;99.90;;;;;;4840072;29;20137;-77